sensor_id;sensor_type;location;lat;lon;timestamp;P1;durP1;ratioP1;P2;durP2;ratioP2
29214;SDS011;16252;49.816;7.964;2023-01-26T00:00:22;10.13;;;5.82;;
29214;SDS011;16252;49.816;7.964;2023-01-26T00:02:47;11.95;;;5.78;;
29214;SDS011;16252;49.816;7.964;2023-01-26T00:05:12;11.18;;;6.55;;
29214;SDS011;16252;49.816;7.964;2023-01-26T00:07:38;12.32;;;6.03;;
29214;SDS011;16252;49.816;7.964;2023-01-26T00:10:06;10.73;;;5.68;;
29214;SDS011;16252;49.816;7.964;2023-01-26T00:12:32;9.88;;;5.70;;
29214;SDS011;16252;49.816;7.964;2023-01-26T00:14:57;11.43;;;5.43;;
29214;SDS011;16252;49.816;7.964;2023-01-26T00:17:22;10.40;;;6.10;;
29214;SDS011;16252;49.816;7.964;2023-01-26T00:19:50;10.85;;;5.75;;
29214;SDS011;16252;49.816;7.964;2023-01-26T00:22:20;11.45;;;6.00;;
29214;SDS011;16252;49.816;7.964;2023-01-26T00:24:46;11.07;;;5.78;;
29214;SDS011;16252;49.816;7.964;2023-01-26T00:27:11;9.57;;;5.45;;
29214;SDS011;16252;49.816;7.964;2023-01-26T00:29:36;11.18;;;6.28;;
29214;SDS011;16252;49.816;7.964;2023-01-26T00:32:01;11.85;;;6.13;;
29214;SDS011;16252;49.816;7.964;2023-01-26T00:34:27;11.50;;;5.95;;
29214;SDS011;16252;49.816;7.964;2023-01-26T00:36:52;10.27;;;5.57;;
29214;SDS011;16252;49.816;7.964;2023-01-26T00:39:17;9.85;;;5.50;;
29214;SDS011;16252;49.816;7.964;2023-01-26T00:41:42;8.85;;;4.97;;
29214;SDS011;16252;49.816;7.964;2023-01-26T00:44:26;11.73;;;5.80;;
29214;SDS011;16252;49.816;7.964;2023-01-26T00:46:52;12.00;;;6.35;;
29214;SDS011;16252;49.816;7.964;2023-01-26T00:49:17;8.07;;;4.85;;
29214;SDS011;16252;49.816;7.964;2023-01-26T00:51:42;10.70;;;5.45;;
29214;SDS011;16252;49.816;7.964;2023-01-26T00:54:07;7.97;;;4.60;;
29214;SDS011;16252;49.816;7.964;2023-01-26T00:56:33;9.98;;;5.97;;
29214;SDS011;16252;49.816;7.964;2023-01-26T00:58:58;8.60;;;5.13;;
29214;SDS011;16252;49.816;7.964;2023-01-26T01:01:23;8.00;;;4.70;;
29214;SDS011;16252;49.816;7.964;2023-01-26T01:03:48;11.02;;;5.70;;
29214;SDS011;16252;49.816;7.964;2023-01-26T01:06:16;8.15;;;5.13;;
29214;SDS011;16252;49.816;7.964;2023-01-26T01:08:41;9.80;;;5.07;;
29214;SDS011;16252;49.816;7.964;2023-01-26T01:11:07;8.30;;;4.90;;
29214;SDS011;16252;49.816;7.964;2023-01-26T01:13:34;7.75;;;5.40;;
29214;SDS011;16252;49.816;7.964;2023-01-26T01:15:59;8.85;;;5.07;;
29214;SDS011;16252;49.816;7.964;2023-01-26T01:18:24;7.78;;;5.28;;
29214;SDS011;16252;49.816;7.964;2023-01-26T01:20:50;7.00;;;4.35;;
29214;SDS011;16252;49.816;7.964;2023-01-26T01:23:15;8.40;;;4.32;;
29214;SDS011;16252;49.816;7.964;2023-01-26T01:25:40;9.82;;;4.63;;
29214;SDS011;16252;49.816;7.964;2023-01-26T01:28:06;8.57;;;4.63;;
29214;SDS011;16252;49.816;7.964;2023-01-26T01:30:31;7.90;;;4.88;;
29214;SDS011;16252;49.816;7.964;2023-01-26T01:32:56;7.10;;;4.20;;
29214;SDS011;16252;49.816;7.964;2023-01-26T01:35:21;8.65;;;4.93;;
29214;SDS011;16252;49.816;7.964;2023-01-26T01:37:46;6.90;;;4.40;;
29214;SDS011;16252;49.816;7.964;2023-01-26T01:40:12;6.25;;;3.80;;
29214;SDS011;16252;49.816;7.964;2023-01-26T01:42:37;6.78;;;4.20;;
29214;SDS011;16252;49.816;7.964;2023-01-26T01:47:50;6.32;;;3.95;;
29214;SDS011;16252;49.816;7.964;2023-01-26T01:50:17;5.80;;;3.60;;
29214;SDS011;16252;49.816;7.964;2023-01-26T01:52:43;6.13;;;4.03;;
29214;SDS011;16252;49.816;7.964;2023-01-26T01:55:09;7.82;;;4.18;;
29214;SDS011;16252;49.816;7.964;2023-01-26T01:57:52;6.88;;;3.88;;
29214;SDS011;16252;49.816;7.964;2023-01-26T02:00:20;5.38;;;3.78;;
29214;SDS011;16252;49.816;7.964;2023-01-26T02:02:57;7.70;;;3.72;;
29214;SDS011;16252;49.816;7.964;2023-01-26T02:05:38;6.10;;;4.03;;
29214;SDS011;16252;49.816;7.964;2023-01-26T02:08:10;6.82;;;4.40;;
29214;SDS011;16252;49.816;7.964;2023-01-26T02:10:37;6.80;;;3.83;;
29214;SDS011;16252;49.816;7.964;2023-01-26T02:13:03;7.78;;;4.10;;
29214;SDS011;16252;49.816;7.964;2023-01-26T02:15:29;5.55;;;3.40;;
29214;SDS011;16252;49.816;7.964;2023-01-26T02:17:55;6.65;;;3.40;;
29214;SDS011;16252;49.816;7.964;2023-01-26T02:20:40;5.32;;;3.33;;
29214;SDS011;16252;49.816;7.964;2023-01-26T02:28:21;5.97;;;3.70;;
29214;SDS011;16252;49.816;7.964;2023-01-26T02:30:49;6.10;;;3.72;;
29214;SDS011;16252;49.816;7.964;2023-01-26T02:33:19;6.07;;;3.80;;
29214;SDS011;16252;49.816;7.964;2023-01-26T02:35:45;5.38;;;3.72;;
29214;SDS011;16252;49.816;7.964;2023-01-26T02:38:10;4.05;;;2.92;;
29214;SDS011;16252;49.816;7.964;2023-01-26T02:40:49;2.65;;;2.10;;
29214;SDS011;16252;49.816;7.964;2023-01-26T02:43:19;3.17;;;2.28;;
29214;SDS011;16252;49.816;7.964;2023-01-26T02:45:47;4.15;;;2.75;;
29214;SDS011;16252;49.816;7.964;2023-01-26T02:48:12;3.10;;;2.38;;
29214;SDS011;16252;49.816;7.964;2023-01-26T02:50:37;3.75;;;2.72;;
29214;SDS011;16252;49.816;7.964;2023-01-26T02:53:03;3.58;;;2.60;;
29214;SDS011;16252;49.816;7.964;2023-01-26T02:55:28;4.07;;;2.80;;
29214;SDS011;16252;49.816;7.964;2023-01-26T02:57:55;2.35;;;2.08;;
29214;SDS011;16252;49.816;7.964;2023-01-26T03:00:33;3.03;;;2.25;;
29214;SDS011;16252;49.816;7.964;2023-01-26T03:03:01;4.82;;;3.22;;
29214;SDS011;16252;49.816;7.964;2023-01-26T03:05:36;4.65;;;2.80;;
29214;SDS011;16252;49.816;7.964;2023-01-26T03:08:01;4.25;;;3.03;;
29214;SDS011;16252;49.816;7.964;2023-01-26T03:10:29;5.45;;;3.47;;
29214;SDS011;16252;49.816;7.964;2023-01-26T03:12:55;4.55;;;3.05;;
29214;SDS011;16252;49.816;7.964;2023-01-26T03:15:20;3.60;;;3.05;;
29214;SDS011;16252;49.816;7.964;2023-01-26T03:18:05;5.05;;;3.10;;
29214;SDS011;16252;49.816;7.964;2023-01-26T03:20:51;3.67;;;2.88;;
29214;SDS011;16252;49.816;7.964;2023-01-26T03:23:34;4.45;;;3.20;;
29214;SDS011;16252;49.816;7.964;2023-01-26T03:26:18;3.65;;;2.50;;
29214;SDS011;16252;49.816;7.964;2023-01-26T03:29:02;5.68;;;2.70;;
29214;SDS011;16252;49.816;7.964;2023-01-26T03:31:28;3.80;;;2.67;;
29214;SDS011;16252;49.816;7.964;2023-01-26T03:33:53;5.72;;;3.10;;
29214;SDS011;16252;49.816;7.964;2023-01-26T03:36:18;4.85;;;2.95;;
29214;SDS011;16252;49.816;7.964;2023-01-26T03:38:43;4.20;;;3.22;;
29214;SDS011;16252;49.816;7.964;2023-01-26T03:41:09;4.20;;;2.97;;
29214;SDS011;16252;49.816;7.964;2023-01-26T03:43:52;4.13;;;3.13;;
29214;SDS011;16252;49.816;7.964;2023-01-26T03:46:36;5.18;;;3.40;;
29214;SDS011;16252;49.816;7.964;2023-01-26T03:49:20;3.90;;;2.95;;
29214;SDS011;16252;49.816;7.964;2023-01-26T03:52:04;5.00;;;3.22;;
29214;SDS011;16252;49.816;7.964;2023-01-26T03:54:48;5.03;;;3.42;;
29214;SDS011;16252;49.816;7.964;2023-01-26T03:57:32;4.82;;;3.47;;
29214;SDS011;16252;49.816;7.964;2023-01-26T03:59:57;5.35;;;3.10;;
29214;SDS011;16252;49.816;7.964;2023-01-26T04:02:23;4.85;;;3.08;;
29214;SDS011;16252;49.816;7.964;2023-01-26T04:05:07;3.80;;;2.78;;
29214;SDS011;16252;49.816;7.964;2023-01-26T04:07:51;4.53;;;3.08;;
29214;SDS011;16252;49.816;7.964;2023-01-26T04:10:35;4.10;;;2.72;;
29214;SDS011;16252;49.816;7.964;2023-01-26T04:13:00;4.35;;;2.85;;
29214;SDS011;16252;49.816;7.964;2023-01-26T04:15:46;4.00;;;2.90;;
29214;SDS011;16252;49.816;7.964;2023-01-26T04:18:30;3.85;;;2.72;;
29214;SDS011;16252;49.816;7.964;2023-01-26T04:21:14;4.05;;;2.92;;
29214;SDS011;16252;49.816;7.964;2023-01-26T04:23:53;4.45;;;3.00;;
29214;SDS011;16252;49.816;7.964;2023-01-26T04:26:26;4.65;;;3.25;;
29214;SDS011;16252;49.816;7.964;2023-01-26T04:29:01;4.90;;;3.40;;
29214;SDS011;16252;49.816;7.964;2023-01-26T04:31:28;3.67;;;2.40;;
29214;SDS011;16252;49.816;7.964;2023-01-26T04:33:53;3.55;;;3.00;;
29214;SDS011;16252;49.816;7.964;2023-01-26T04:36:18;5.75;;;3.53;;
29214;SDS011;16252;49.816;7.964;2023-01-26T04:38:44;4.90;;;3.33;;
29214;SDS011;16252;49.816;7.964;2023-01-26T04:41:09;5.05;;;3.58;;
29214;SDS011;16252;49.816;7.964;2023-01-26T04:43:34;4.03;;;3.00;;
29214;SDS011;16252;49.816;7.964;2023-01-26T04:46:04;4.32;;;2.92;;
29214;SDS011;16252;49.816;7.964;2023-01-26T04:48:31;3.40;;;2.55;;
29214;SDS011;16252;49.816;7.964;2023-01-26T04:50:57;4.78;;;2.90;;
29214;SDS011;16252;49.816;7.964;2023-01-26T04:53:24;3.88;;;2.70;;
29214;SDS011;16252;49.816;7.964;2023-01-26T04:55:50;5.38;;;3.47;;
29214;SDS011;16252;49.816;7.964;2023-01-26T04:58:15;5.38;;;3.38;;
29214;SDS011;16252;49.816;7.964;2023-01-26T05:00:41;4.47;;;2.92;;
29214;SDS011;16252;49.816;7.964;2023-01-26T05:03:06;3.42;;;2.85;;
29214;SDS011;16252;49.816;7.964;2023-01-26T05:05:37;4.60;;;2.78;;
29214;SDS011;16252;49.816;7.964;2023-01-26T05:08:03;3.75;;;2.70;;
29214;SDS011;16252;49.816;7.964;2023-01-26T05:10:30;3.58;;;2.40;;
29214;SDS011;16252;49.816;7.964;2023-01-26T05:12:56;3.70;;;2.70;;
29214;SDS011;16252;49.816;7.964;2023-01-26T05:15:21;3.90;;;2.72;;
29214;SDS011;16252;49.816;7.964;2023-01-26T05:17:46;4.28;;;2.95;;
29214;SDS011;16252;49.816;7.964;2023-01-26T05:20:11;3.53;;;2.78;;
29214;SDS011;16252;49.816;7.964;2023-01-26T05:22:37;4.07;;;3.17;;
29214;SDS011;16252;49.816;7.964;2023-01-26T05:25:03;5.07;;;3.28;;
29214;SDS011;16252;49.816;7.964;2023-01-26T05:27:29;4.10;;;2.88;;
29214;SDS011;16252;49.816;7.964;2023-01-26T05:29:54;4.95;;;3.08;;
29214;SDS011;16252;49.816;7.964;2023-01-26T05:32:24;4.30;;;3.17;;
29214;SDS011;16252;49.816;7.964;2023-01-26T05:34:50;5.70;;;3.50;;
29214;SDS011;16252;49.816;7.964;2023-01-26T05:37:16;4.40;;;3.00;;
29214;SDS011;16252;49.816;7.964;2023-01-26T05:39:41;4.10;;;2.70;;
29214;SDS011;16252;49.816;7.964;2023-01-26T05:42:06;5.03;;;3.03;;
29214;SDS011;16252;49.816;7.964;2023-01-26T05:44:32;5.00;;;3.58;;
29214;SDS011;16252;49.816;7.964;2023-01-26T05:46:57;4.57;;;3.08;;
29214;SDS011;16252;49.816;7.964;2023-01-26T05:49:22;6.18;;;3.40;;
29214;SDS011;16252;49.816;7.964;2023-01-26T05:51:47;5.72;;;3.35;;
29214;SDS011;16252;49.816;7.964;2023-01-26T05:54:13;4.55;;;3.42;;
29214;SDS011;16252;49.816;7.964;2023-01-26T05:56:38;6.28;;;3.65;;
29214;SDS011;16252;49.816;7.964;2023-01-26T05:59:03;4.80;;;3.15;;
29214;SDS011;16252;49.816;7.964;2023-01-26T06:01:28;4.20;;;3.20;;
29214;SDS011;16252;49.816;7.964;2023-01-26T06:03:54;5.50;;;3.55;;
29214;SDS011;16252;49.816;7.964;2023-01-26T06:06:19;5.32;;;3.28;;
29214;SDS011;16252;49.816;7.964;2023-01-26T06:08:44;4.93;;;3.40;;
29214;SDS011;16252;49.816;7.964;2023-01-26T06:11:09;5.18;;;3.42;;
29214;SDS011;16252;49.816;7.964;2023-01-26T06:13:34;6.10;;;3.55;;
29214;SDS011;16252;49.816;7.964;2023-01-26T06:16:00;5.68;;;3.65;;
29214;SDS011;16252;49.816;7.964;2023-01-26T06:18:26;5.07;;;3.58;;
29214;SDS011;16252;49.816;7.964;2023-01-26T06:20:51;6.43;;;3.80;;
29214;SDS011;16252;49.816;7.964;2023-01-26T06:23:16;5.38;;;3.75;;
29214;SDS011;16252;49.816;7.964;2023-01-26T06:25:41;5.43;;;3.67;;
29214;SDS011;16252;49.816;7.964;2023-01-26T06:28:07;7.85;;;4.30;;
29214;SDS011;16252;49.816;7.964;2023-01-26T06:30:32;5.95;;;4.10;;
29214;SDS011;16252;49.816;7.964;2023-01-26T06:32:58;7.50;;;5.00;;
29214;SDS011;16252;49.816;7.964;2023-01-26T06:35:24;8.13;;;5.05;;
29214;SDS011;16252;49.816;7.964;2023-01-26T06:37:50;9.10;;;4.60;;
29214;SDS011;16252;49.816;7.964;2023-01-26T06:40:16;6.03;;;4.03;;
29214;SDS011;16252;49.816;7.964;2023-01-26T06:42:49;6.82;;;4.30;;
29214;SDS011;16252;49.816;7.964;2023-01-26T06:45:15;6.60;;;4.53;;
29214;SDS011;16252;49.816;7.964;2023-01-26T06:47:45;7.45;;;4.68;;
29214;SDS011;16252;49.816;7.964;2023-01-26T06:50:15;9.10;;;5.03;;
29214;SDS011;16252;49.816;7.964;2023-01-26T06:52:45;8.90;;;5.32;;
29214;SDS011;16252;49.816;7.964;2023-01-26T06:55:19;8.65;;;4.97;;
29214;SDS011;16252;49.816;7.964;2023-01-26T06:57:47;7.65;;;4.72;;
29214;SDS011;16252;49.816;7.964;2023-01-26T07:00:13;7.05;;;5.03;;
29214;SDS011;16252;49.816;7.964;2023-01-26T07:02:39;8.80;;;5.45;;
29214;SDS011;16252;49.816;7.964;2023-01-26T07:05:05;9.75;;;4.97;;
29214;SDS011;16252;49.816;7.964;2023-01-26T07:07:31;7.85;;;5.15;;
29214;SDS011;16252;49.816;7.964;2023-01-26T07:09:56;9.25;;;5.50;;
29214;SDS011;16252;49.816;7.964;2023-01-26T07:12:21;8.65;;;5.40;;
29214;SDS011;16252;49.816;7.964;2023-01-26T07:14:47;10.35;;;5.93;;
29214;SDS011;16252;49.816;7.964;2023-01-26T07:17:12;8.63;;;5.53;;
29214;SDS011;16252;49.816;7.964;2023-01-26T07:19:37;8.90;;;5.13;;
29214;SDS011;16252;49.816;7.964;2023-01-26T07:22:03;9.98;;;5.10;;
29214;SDS011;16252;49.816;7.964;2023-01-26T07:24:28;9.10;;;5.85;;
29214;SDS011;16252;49.816;7.964;2023-01-26T07:26:54;11.70;;;6.03;;
29214;SDS011;16252;49.816;7.964;2023-01-26T07:29:19;10.48;;;5.95;;
29214;SDS011;16252;49.816;7.964;2023-01-26T07:31:45;9.00;;;5.63;;
29214;SDS011;16252;49.816;7.964;2023-01-26T07:34:10;9.00;;;5.50;;
29214;SDS011;16252;49.816;7.964;2023-01-26T07:36:36;9.68;;;5.53;;
29214;SDS011;16252;49.816;7.964;2023-01-26T07:39:01;11.30;;;5.78;;
29214;SDS011;16252;49.816;7.964;2023-01-26T07:41:26;12.15;;;6.18;;
29214;SDS011;16252;49.816;7.964;2023-01-26T07:43:51;11.10;;;6.03;;
29214;SDS011;16252;49.816;7.964;2023-01-26T07:46:17;10.95;;;6.13;;
29214;SDS011;16252;49.816;7.964;2023-01-26T07:48:42;9.15;;;5.60;;
29214;SDS011;16252;49.816;7.964;2023-01-26T07:51:07;9.30;;;5.20;;
29214;SDS011;16252;49.816;7.964;2023-01-26T07:53:35;11.38;;;6.40;;
29214;SDS011;16252;49.816;7.964;2023-01-26T07:56:13;13.35;;;6.07;;
29214;SDS011;16252;49.816;7.964;2023-01-26T07:58:40;11.45;;;6.57;;
29214;SDS011;16252;49.816;7.964;2023-01-26T08:01:06;10.25;;;5.72;;
29214;SDS011;16252;49.816;7.964;2023-01-26T08:03:34;11.63;;;5.97;;
29214;SDS011;16252;49.816;7.964;2023-01-26T08:05:59;9.77;;;5.82;;
29214;SDS011;16252;49.816;7.964;2023-01-26T08:08:25;10.63;;;6.50;;
29214;SDS011;16252;49.816;7.964;2023-01-26T08:10:51;11.98;;;6.78;;
29214;SDS011;16252;49.816;7.964;2023-01-26T08:13:16;12.40;;;6.97;;
29214;SDS011;16252;49.816;7.964;2023-01-26T08:15:41;12.32;;;6.30;;
29214;SDS011;16252;49.816;7.964;2023-01-26T08:18:06;11.18;;;6.43;;
29214;SDS011;16252;49.816;7.964;2023-01-26T08:20:31;12.82;;;7.15;;
29214;SDS011;16252;49.816;7.964;2023-01-26T08:22:57;11.52;;;6.35;;
29214;SDS011;16252;49.816;7.964;2023-01-26T08:25:22;9.10;;;5.72;;
29214;SDS011;16252;49.816;7.964;2023-01-26T08:27:47;10.50;;;6.53;;
29214;SDS011;16252;49.816;7.964;2023-01-26T08:30:13;11.20;;;5.95;;
29214;SDS011;16252;49.816;7.964;2023-01-26T08:32:39;11.68;;;6.57;;
29214;SDS011;16252;49.816;7.964;2023-01-26T08:35:05;11.25;;;6.38;;
29214;SDS011;16252;49.816;7.964;2023-01-26T08:37:30;12.85;;;7.25;;
29214;SDS011;16252;49.816;7.964;2023-01-26T08:39:57;11.82;;;6.53;;
29214;SDS011;16252;49.816;7.964;2023-01-26T08:42:22;13.23;;;7.70;;
29214;SDS011;16252;49.816;7.964;2023-01-26T08:44:49;11.40;;;6.20;;
29214;SDS011;16252;49.816;7.964;2023-01-26T08:47:14;14.63;;;8.07;;
29214;SDS011;16252;49.816;7.964;2023-01-26T08:49:39;13.95;;;7.63;;
29214;SDS011;16252;49.816;7.964;2023-01-26T08:52:05;13.82;;;7.30;;
29214;SDS011;16252;49.816;7.964;2023-01-26T08:54:30;13.57;;;7.35;;
29214;SDS011;16252;49.816;7.964;2023-01-26T08:56:56;12.82;;;6.78;;
29214;SDS011;16252;49.816;7.964;2023-01-26T08:59:21;12.25;;;7.28;;
29214;SDS011;16252;49.816;7.964;2023-01-26T09:01:47;11.50;;;6.93;;
29214;SDS011;16252;49.816;7.964;2023-01-26T09:04:13;14.18;;;7.93;;
29214;SDS011;16252;49.816;7.964;2023-01-26T09:06:38;13.23;;;7.60;;
29214;SDS011;16252;49.816;7.964;2023-01-26T09:09:03;17.52;;;7.80;;
29214;SDS011;16252;49.816;7.964;2023-01-26T09:11:28;15.95;;;7.60;;
29214;SDS011;16252;49.816;7.964;2023-01-26T09:13:54;14.13;;;8.10;;
29214;SDS011;16252;49.816;7.964;2023-01-26T09:16:23;15.02;;;7.78;;
29214;SDS011;16252;49.816;7.964;2023-01-26T09:18:49;12.40;;;7.20;;
29214;SDS011;16252;49.816;7.964;2023-01-26T09:21:15;18.50;;;8.57;;
29214;SDS011;16252;49.816;7.964;2023-01-26T09:23:41;16.17;;;8.20;;
29214;SDS011;16252;49.816;7.964;2023-01-26T09:26:06;14.35;;;7.97;;
29214;SDS011;16252;49.816;7.964;2023-01-26T09:28:32;13.65;;;7.18;;
29214;SDS011;16252;49.816;7.964;2023-01-26T09:31:01;17.38;;;7.93;;
29214;SDS011;16252;49.816;7.964;2023-01-26T09:33:30;16.10;;;8.50;;
29214;SDS011;16252;49.816;7.964;2023-01-26T09:36:01;17.13;;;8.02;;
29214;SDS011;16252;49.816;7.964;2023-01-26T09:38:27;14.63;;;7.47;;
29214;SDS011;16252;49.816;7.964;2023-01-26T09:43:43;17.70;;;8.25;;
29214;SDS011;16252;49.816;7.964;2023-01-26T09:48:46;15.57;;;7.80;;
29214;SDS011;16252;49.816;7.964;2023-01-26T09:54:08;10.85;;;6.43;;
29214;SDS011;16252;49.816;7.964;2023-01-26T09:56:39;15.20;;;7.70;;
29214;SDS011;16252;49.816;7.964;2023-01-26T10:02:00;13.73;;;7.00;;
29214;SDS011;16252;49.816;7.964;2023-01-26T10:04:41;12.55;;;7.20;;
29214;SDS011;16252;49.816;7.964;2023-01-26T10:09:38;11.00;;;5.97;;
29214;SDS011;16252;49.816;7.964;2023-01-26T10:12:06;16.05;;;7.97;;
29214;SDS011;16252;49.816;7.964;2023-01-26T10:14:36;19.02;;;9.75;;
29214;SDS011;16252;49.816;7.964;2023-01-26T10:17:11;22.73;;;12.05;;
29214;SDS011;16252;49.816;7.964;2023-01-26T10:19:42;17.33;;;9.60;;
29214;SDS011;16252;49.816;7.964;2023-01-26T10:22:17;15.00;;;8.38;;
29214;SDS011;16252;49.816;7.964;2023-01-26T10:24:46;18.83;;;9.95;;
29214;SDS011;16252;49.816;7.964;2023-01-26T10:27:14;14.93;;;8.30;;
29214;SDS011;16252;49.816;7.964;2023-01-26T10:29:39;19.67;;;9.18;;
29214;SDS011;16252;49.816;7.964;2023-01-26T10:32:05;16.75;;;8.48;;
29214;SDS011;16252;49.816;7.964;2023-01-26T10:34:33;16.73;;;8.52;;
29214;SDS011;16252;49.816;7.964;2023-01-26T10:37:11;19.52;;;9.38;;
29214;SDS011;16252;49.816;7.964;2023-01-26T10:39:59;15.90;;;8.18;;
29214;SDS011;16252;49.816;7.964;2023-01-26T10:42:26;16.75;;;7.95;;
29214;SDS011;16252;49.816;7.964;2023-01-26T10:44:54;21.92;;;11.13;;
29214;SDS011;16252;49.816;7.964;2023-01-26T10:47:19;23.30;;;11.57;;
29214;SDS011;16252;49.816;7.964;2023-01-26T10:49:48;15.65;;;9.15;;
29214;SDS011;16252;49.816;7.964;2023-01-26T10:52:15;17.60;;;9.48;;
29214;SDS011;16252;49.816;7.964;2023-01-26T10:54:42;15.15;;;8.63;;
29214;SDS011;16252;49.816;7.964;2023-01-26T10:59:57;22.45;;;10.38;;
29214;SDS011;16252;49.816;7.964;2023-01-26T11:02:27;16.95;;;8.88;;
29214;SDS011;16252;49.816;7.964;2023-01-26T11:05:02;21.65;;;10.18;;
29214;SDS011;16252;49.816;7.964;2023-01-26T11:07:38;18.63;;;8.43;;
29214;SDS011;16252;49.816;7.964;2023-01-26T11:12:46;37.35;;;15.93;;
29214;SDS011;16252;49.816;7.964;2023-01-26T11:15:22;27.42;;;12.98;;
29214;SDS011;16252;49.816;7.964;2023-01-26T11:17:50;23.35;;;12.48;;
29214;SDS011;16252;49.816;7.964;2023-01-26T11:20:27;23.48;;;11.98;;
29214;SDS011;16252;49.816;7.964;2023-01-26T11:22:58;20.85;;;10.13;;
29214;SDS011;16252;49.816;7.964;2023-01-26T11:25:39;19.00;;;9.93;;
29214;SDS011;16252;49.816;7.964;2023-01-26T11:28:24;19.73;;;9.98;;
29214;SDS011;16252;49.816;7.964;2023-01-26T11:31:12;15.63;;;8.32;;
29214;SDS011;16252;49.816;7.964;2023-01-26T11:36:51;15.48;;;7.60;;
29214;SDS011;16252;49.816;7.964;2023-01-26T11:39:27;28.80;;;13.30;;
29214;SDS011;16252;49.816;7.964;2023-01-26T11:42:36;24.40;;;13.07;;
29214;SDS011;16252;49.816;7.964;2023-01-26T11:45:16;25.05;;;13.63;;
29214;SDS011;16252;49.816;7.964;2023-01-26T11:50:54;21.77;;;11.20;;
29214;SDS011;16252;49.816;7.964;2023-01-26T11:56:39;19.45;;;9.60;;
29214;SDS011;16252;49.816;7.964;2023-01-26T11:59:33;19.52;;;9.15;;
29214;SDS011;16252;49.816;7.964;2023-01-26T12:02:18;16.38;;;9.10;;
29214;SDS011;16252;49.816;7.964;2023-01-26T12:04:50;16.63;;;8.13;;
29214;SDS011;16252;49.816;7.964;2023-01-26T12:07:29;15.70;;;7.78;;
29214;SDS011;16252;49.816;7.964;2023-01-26T12:10:15;16.92;;;8.35;;
29214;SDS011;16252;49.816;7.964;2023-01-26T12:12:45;17.88;;;8.57;;
29214;SDS011;16252;49.816;7.964;2023-01-26T12:15:21;18.63;;;8.48;;
29214;SDS011;16252;49.816;7.964;2023-01-26T12:18:05;18.23;;;8.05;;
29214;SDS011;16252;49.816;7.964;2023-01-26T12:20:44;15.27;;;7.55;;
29214;SDS011;16252;49.816;7.964;2023-01-26T12:26:13;16.42;;;8.63;;
29214;SDS011;16252;49.816;7.964;2023-01-26T12:28:43;23.88;;;11.68;;
29214;SDS011;16252;49.816;7.964;2023-01-26T12:33:43;20.90;;;10.52;;
29214;SDS011;16252;49.816;7.964;2023-01-26T12:36:18;15.75;;;8.60;;
29214;SDS011;16252;49.816;7.964;2023-01-26T12:41:34;21.45;;;8.50;;
29214;SDS011;16252;49.816;7.964;2023-01-26T12:46:38;16.00;;;7.90;;
29214;SDS011;16252;49.816;7.964;2023-01-26T12:51:57;17.65;;;7.50;;
29214;SDS011;16252;49.816;7.964;2023-01-26T12:54:48;15.93;;;7.38;;
29214;SDS011;16252;49.816;7.964;2023-01-26T12:57:21;12.68;;;6.93;;
29214;SDS011;16252;49.816;7.964;2023-01-26T13:02:29;11.88;;;5.88;;
29214;SDS011;16252;49.816;7.964;2023-01-26T13:04:58;14.23;;;6.72;;
29214;SDS011;16252;49.816;7.964;2023-01-26T13:10:34;11.57;;;7.10;;
29214;SDS011;16252;49.816;7.964;2023-01-26T13:12:45;11.95;;;6.68;;
29214;SDS011;16252;49.816;7.964;2023-01-26T13:15:15;9.98;;;5.55;;
29214;SDS011;16252;49.816;7.964;2023-01-26T13:17:53;9.90;;;5.72;;
29214;SDS011;16252;49.816;7.964;2023-01-26T13:20:24;11.60;;;5.35;;
29214;SDS011;16252;49.816;7.964;2023-01-26T13:22:53;9.73;;;5.53;;
29214;SDS011;16252;49.816;7.964;2023-01-26T13:25:29;9.68;;;5.10;;
29214;SDS011;16252;49.816;7.964;2023-01-26T13:27:57;12.18;;;5.85;;
29214;SDS011;16252;49.816;7.964;2023-01-26T13:33:09;10.70;;;5.88;;
29214;SDS011;16252;49.816;7.964;2023-01-26T13:35:35;7.72;;;4.85;;
29214;SDS011;16252;49.816;7.964;2023-01-26T13:38:05;8.05;;;4.55;;
29214;SDS011;16252;49.816;7.964;2023-01-26T13:40:49;8.05;;;4.20;;
29214;SDS011;16252;49.816;7.964;2023-01-26T13:43:20;8.52;;;4.65;;
29214;SDS011;16252;49.816;7.964;2023-01-26T13:46:12;7.60;;;4.63;;
29214;SDS011;16252;49.816;7.964;2023-01-26T13:48:45;7.82;;;4.35;;
29214;SDS011;16252;49.816;7.964;2023-01-26T13:51:15;8.25;;;4.50;;
29214;SDS011;16252;49.816;7.964;2023-01-26T13:53:57;9.35;;;5.22;;
29214;SDS011;16252;49.816;7.964;2023-01-26T13:59:02;9.07;;;5.22;;
29214;SDS011;16252;49.816;7.964;2023-01-26T14:01:32;7.68;;;4.55;;
29214;SDS011;16252;49.816;7.964;2023-01-26T14:04:01;10.60;;;5.45;;
29214;SDS011;16252;49.816;7.964;2023-01-26T14:06:30;8.60;;;5.20;;
29214;SDS011;16252;49.816;7.964;2023-01-26T14:08:57;7.50;;;4.88;;
29214;SDS011;16252;49.816;7.964;2023-01-26T14:11:24;8.07;;;4.82;;
29214;SDS011;16252;49.816;7.964;2023-01-26T14:13:52;8.90;;;4.82;;
29214;SDS011;16252;49.816;7.964;2023-01-26T14:16:24;9.93;;;5.22;;
29214;SDS011;16252;49.816;7.964;2023-01-26T14:19:03;8.30;;;5.03;;
29214;SDS011;16252;49.816;7.964;2023-01-26T14:21:52;9.90;;;4.97;;
29214;SDS011;16252;49.816;7.964;2023-01-26T14:26:59;10.05;;;5.57;;
29214;SDS011;16252;49.816;7.964;2023-01-26T14:29:25;8.32;;;5.65;;
29214;SDS011;16252;49.816;7.964;2023-01-26T14:31:52;8.38;;;5.15;;
29214;SDS011;16252;49.816;7.964;2023-01-26T14:34:22;7.65;;;4.93;;
29214;SDS011;16252;49.816;7.964;2023-01-26T14:37:03;11.27;;;5.53;;
29214;SDS011;16252;49.816;7.964;2023-01-26T14:39:32;10.70;;;5.03;;
29214;SDS011;16252;49.816;7.964;2023-01-26T14:41:58;9.02;;;5.10;;
29214;SDS011;16252;49.816;7.964;2023-01-26T14:44:24;8.88;;;5.15;;
29214;SDS011;16252;49.816;7.964;2023-01-26T14:46:55;10.80;;;6.07;;
29214;SDS011;16252;49.816;7.964;2023-01-26T14:51:58;8.95;;;5.13;;
29214;SDS011;16252;49.816;7.964;2023-01-26T14:54:25;10.27;;;5.47;;
29214;SDS011;16252;49.816;7.964;2023-01-26T14:56:54;19.58;;;9.82;;
29214;SDS011;16252;49.816;7.964;2023-01-26T14:59:34;19.85;;;9.80;;
29214;SDS011;16252;49.816;7.964;2023-01-26T15:02:22;15.30;;;8.25;;
29214;SDS011;16252;49.816;7.964;2023-01-26T15:05:10;11.13;;;5.80;;
29214;SDS011;16252;49.816;7.964;2023-01-26T15:07:44;11.02;;;6.20;;
29214;SDS011;16252;49.816;7.964;2023-01-26T15:10:32;9.15;;;5.80;;
29214;SDS011;16252;49.816;7.964;2023-01-26T15:15:41;10.07;;;5.80;;
29214;SDS011;16252;49.816;7.964;2023-01-26T15:20:38;18.15;;;8.52;;
29214;SDS011;16252;49.816;7.964;2023-01-26T15:23:10;15.43;;;8.90;;
29214;SDS011;16252;49.816;7.964;2023-01-26T15:25:45;14.40;;;7.35;;
29214;SDS011;16252;49.816;7.964;2023-01-26T15:28:11;13.18;;;7.00;;
29214;SDS011;16252;49.816;7.964;2023-01-26T15:30:48;12.20;;;6.47;;
29214;SDS011;16252;49.816;7.964;2023-01-26T15:36:21;55.13;;;18.45;;
29214;SDS011;16252;49.816;7.964;2023-01-26T15:38:48;60.42;;;21.25;;
29214;SDS011;16252;49.816;7.964;2023-01-26T15:41:14;39.80;;;15.98;;
29214;SDS011;16252;49.816;7.964;2023-01-26T15:43:39;31.23;;;12.88;;
29214;SDS011;16252;49.816;7.964;2023-01-26T15:46:04;25.38;;;10.65;;
29214;SDS011;16252;49.816;7.964;2023-01-26T15:48:30;45.05;;;16.70;;
29214;SDS011;16252;49.816;7.964;2023-01-26T15:50:58;33.47;;;14.23;;
29214;SDS011;16252;49.816;7.964;2023-01-26T15:53:24;22.45;;;11.05;;
29214;SDS011;16252;49.816;7.964;2023-01-26T15:55:49;17.85;;;8.95;;
29214;SDS011;16252;49.816;7.964;2023-01-26T15:58:23;18.08;;;8.82;;
29214;SDS011;16252;49.816;7.964;2023-01-26T16:00:49;21.45;;;10.65;;
29214;SDS011;16252;49.816;7.964;2023-01-26T16:03:17;22.08;;;10.55;;
29214;SDS011;16252;49.816;7.964;2023-01-26T16:05:43;15.95;;;8.25;;
29214;SDS011;16252;49.816;7.964;2023-01-26T16:08:12;15.52;;;7.72;;